createdAt,value
2023-04-01T00:00:06.654Z,99.00
2023-04-01T00:03:08.272Z,98.80
2023-04-01T00:06:14.638Z,99.40
2023-04-01T00:09:16.253Z,99.10
2023-04-01T00:12:17.792Z,99.10
2023-04-01T00:15:19.492Z,99.10
2023-04-01T00:18:21.577Z,99.00
2023-04-01T00:21:23.519Z,99.00
2023-04-01T00:24:25.344Z,99.00
2023-04-01T00:27:26.979Z,99.10
2023-04-01T00:30:28.620Z,99.10
2023-04-01T00:33:31.323Z,99.30
2023-04-01T00:36:32.909Z,99.10
2023-04-01T00:39:36.036Z,99.10
2023-04-01T00:42:37.597Z,99.10
2023-04-01T00:45:42.127Z,99.20
2023-04-01T00:48:49.177Z,99.30
2023-04-01T00:51:55.107Z,99.40
2023-04-01T00:55:00.553Z,99.50
2023-04-01T00:58:06.068Z,99.40
2023-04-01T01:01:09.910Z,99.70
2023-04-01T01:04:24.766Z,99.50
2023-04-01T01:07:56.932Z,99.50
2023-04-01T01:10:58.569Z,98.60
2023-04-01T01:14:15.651Z,99.40
2023-04-01T01:17:32.595Z,98.80
2023-04-01T01:20:57.801Z,99.90
2023-04-01T01:24:29.618Z,99.60
2023-04-01T01:27:33.782Z,98.70
2023-04-01T01:31:13.032Z,99.50
2023-04-01T01:34:37.312Z,98.80
2023-04-01T01:37:41.927Z,98.70
2023-04-01T01:40:47.022Z,99.40
2023-04-01T01:43:51.577Z,99.40
2023-04-01T01:46:53.158Z,99.50
2023-04-01T01:49:56.191Z,99.70
2023-04-01T01:53:03.771Z,99.40
2023-04-01T01:56:06.079Z,99.80
2023-04-01T01:59:11.944Z,99.40
2023-04-01T02:02:15.947Z,99.60
2023-04-01T02:05:25.649Z,99.50
2023-04-01T02:08:32.221Z,98.70
2023-04-01T02:11:41.097Z,99.10
2023-04-01T02:14:57.308Z,99.50
2023-04-01T02:17:59.544Z,98.90
2023-04-01T02:21:01.925Z,99.40
2023-04-01T02:24:07.946Z,99.50
2023-04-01T02:27:11.308Z,99.60
2023-04-01T02:30:14.724Z,99.50
2023-04-01T02:33:17.587Z,99.60
2023-04-01T02:36:19.444Z,99.80
2023-04-01T02:39:21.629Z,99.70
2023-04-01T02:42:23.186Z,99.90
2023-04-01T02:45:24.778Z,99.90
2023-04-01T02:48:26.394Z,99.90
2023-04-01T02:51:28.063Z,99.80
2023-04-01T02:54:29.691Z,99.70
2023-04-01T02:57:31.383Z,99.90
2023-04-01T03:00:33.174Z,99.90
2023-04-01T03:03:34.958Z,99.90
2023-04-01T03:06:36.557Z,99.90
2023-04-01T03:09:39.595Z,99.90
2023-04-01T03:12:41.506Z,99.90
2023-04-01T03:15:43.056Z,99.90
2023-04-01T03:18:45.067Z,99.90
2023-04-01T03:21:46.628Z,99.90
2023-04-01T03:24:49.516Z,99.90
2023-04-01T03:27:51.070Z,99.90
2023-04-01T03:30:52.665Z,99.90
2023-04-01T03:33:54.353Z,99.90
2023-04-01T03:36:55.901Z,99.90
2023-04-01T03:39:57.426Z,99.90
2023-04-01T03:42:59.062Z,99.90
2023-04-01T03:46:00.749Z,99.90
2023-04-01T03:49:03.454Z,99.90
2023-04-01T03:52:05.078Z,99.90
2023-04-01T03:55:06.993Z,99.90
2023-04-01T03:58:09.633Z,99.90
2023-04-01T04:01:19.424Z,99.90
2023-04-01T04:04:21.163Z,99.90
2023-04-01T04:07:22.776Z,99.90
2023-04-01T04:10:25.826Z,99.90
2023-04-01T04:13:27.397Z,99.90
2023-04-01T04:16:29.250Z,99.90
2023-04-01T04:19:34.851Z,99.90
2023-04-01T04:22:36.410Z,99.90
2023-04-01T04:25:37.969Z,99.90
2023-04-01T04:28:39.757Z,99.90
2023-04-01T04:31:41.293Z,99.90
2023-04-01T04:34:42.869Z,99.90
2023-04-01T04:37:44.759Z,99.90
2023-04-01T04:40:46.480Z,99.80
2023-04-01T04:43:54.516Z,99.90
2023-04-01T04:46:58.381Z,99.90
2023-04-01T04:50:00.287Z,99.90
2023-04-01T04:53:02.312Z,99.90
2023-04-01T04:56:03.884Z,99.90
2023-04-01T04:59:06.255Z,99.90
2023-04-01T05:02:07.878Z,99.90
2023-04-01T05:05:09.766Z,99.90
2023-04-01T05:08:11.340Z,99.90
2023-04-01T05:11:15.953Z,99.90
2023-04-01T05:14:17.790Z,99.90
2023-04-01T05:17:19.385Z,99.90
2023-04-01T05:20:20.950Z,99.90
2023-04-01T05:23:23.505Z,99.90
2023-04-01T05:26:25.121Z,99.90
2023-04-01T05:29:27.124Z,99.90
2023-04-01T05:32:28.680Z,99.90
2023-04-01T05:35:30.396Z,99.90
2023-04-01T05:38:32.009Z,99.90
2023-04-01T05:41:36.498Z,99.90
2023-04-01T05:44:38.194Z,99.90
2023-04-01T05:47:39.841Z,99.90
2023-04-01T05:50:42.550Z,99.90
2023-04-01T05:53:44.623Z,99.90
2023-04-01T05:56:47.623Z,99.90
2023-04-01T05:59:50.352Z,99.90
2023-04-01T06:02:53.205Z,99.90
2023-04-01T06:05:54.858Z,99.90
2023-04-01T06:09:01.501Z,99.90
2023-04-01T06:12:09.160Z,99.90
2023-04-01T06:15:26.622Z,99.90
2023-04-01T06:18:39.965Z,99.90
2023-04-01T06:22:07.182Z,99.90
2023-04-01T06:25:29.831Z,99.90
2023-04-01T06:28:52.794Z,99.90
2023-04-01T06:32:16.344Z,99.90
2023-04-01T06:35:23.861Z,99.90
2023-04-01T06:38:50.241Z,99.90
2023-04-01T06:42:00.639Z,99.90
2023-04-01T06:45:19.269Z,99.90
2023-04-01T06:48:41.890Z,99.90
2023-04-01T06:52:08.056Z,99.90
2023-04-01T06:55:24.272Z,99.90
2023-04-01T06:58:30.054Z,99.90
2023-04-01T07:01:55.029Z,99.90
2023-04-01T07:04:58.921Z,99.90
2023-04-01T07:08:03.291Z,99.90
2023-04-01T07:11:17.760Z,99.90
2023-04-01T07:14:29.597Z,99.90
2023-04-01T07:17:40.118Z,99.90
2023-04-01T07:20:41.882Z,99.90
2023-04-01T07:23:46.482Z,99.90
2023-04-01T07:26:51.231Z,99.90
2023-04-01T07:29:52.824Z,99.90
2023-04-01T07:33:05.332Z,99.90
2023-04-01T07:36:21.309Z,99.90
2023-04-01T07:39:41.887Z,99.90
2023-04-01T07:43:15.020Z,99.90
2023-04-01T07:46:26.851Z,99.90
2023-04-01T07:49:38.928Z,99.90
2023-04-01T07:53:07.518Z,99.90
2023-04-01T07:56:28.805Z,99.90
2023-04-01T07:59:36.230Z,99.90
2023-04-01T08:02:48.879Z,99.90
2023-04-01T08:06:17.547Z,99.90
2023-04-01T08:09:32.904Z,99.90
2023-04-01T08:13:01.989Z,99.90
2023-04-01T08:16:21.192Z,99.90
2023-04-01T08:19:57.224Z,99.90
2023-04-01T08:23:06.698Z,99.90
2023-04-01T08:26:30.653Z,99.90
2023-04-01T08:29:43.832Z,99.90
2023-04-01T08:32:56.684Z,99.90
2023-04-01T08:36:19.950Z,99.90
2023-04-01T08:39:33.555Z,99.90
2023-04-01T08:43:17.094Z,99.90
2023-04-01T08:46:39.569Z,99.90
2023-04-01T08:50:14.893Z,99.90
2023-04-01T08:53:50.756Z,99.90
2023-04-01T08:57:01.815Z,99.90
2023-04-01T09:00:04.223Z,99.90
2023-04-01T09:03:30.456Z,99.90
2023-04-01T09:06:42.550Z,99.90
2023-04-01T09:10:02.250Z,99.90
2023-04-01T09:13:36.353Z,99.90
2023-04-01T09:17:15.583Z,99.90
2023-04-01T09:20:46.890Z,99.90
2023-04-01T09:24:06.992Z,99.90
2023-04-01T09:27:26.600Z,99.90
2023-04-01T09:31:06.039Z,99.90
2023-04-01T09:34:19.417Z,99.90
2023-04-01T09:37:40.948Z,99.90
2023-04-01T09:40:48.770Z,99.90
2023-04-01T09:44:05.386Z,99.90
2023-04-01T09:47:28.800Z,99.90
2023-04-01T09:50:37.776Z,99.90
2023-04-01T09:53:45.604Z,99.90
2023-04-01T09:57:07.909Z,99.90
2023-04-01T10:00:23.095Z,99.90
2023-04-01T10:03:58.544Z,99.90
2023-04-01T10:07:29.488Z,99.90
2023-04-01T10:10:34.034Z,99.90
2023-04-01T10:13:53.820Z,99.90
2023-04-01T10:17:14.492Z,99.90
2023-04-01T10:20:21.913Z,99.90
2023-04-01T10:23:52.972Z,99.90
2023-04-01T10:27:15.881Z,99.90
2023-04-01T10:30:36.313Z,99.90
2023-04-01T10:33:56.655Z,99.90
2023-04-01T10:37:00.406Z,99.90
2023-04-01T10:40:25.181Z,99.90
2023-04-01T10:43:49.540Z,99.90
2023-04-01T10:47:19.552Z,99.90
2023-04-01T10:50:35.857Z,99.90
2023-04-01T10:53:56.370Z,99.90
2023-04-01T10:57:18.488Z,99.90
2023-04-01T11:00:52.392Z,99.90
2023-04-01T11:04:11.568Z,99.90
2023-04-01T11:07:24.783Z,99.90
2023-04-01T11:10:58.568Z,99.90
2023-04-01T11:14:27.866Z,99.90
2023-04-01T11:18:02.098Z,99.90
2023-04-01T11:21:09.817Z,99.90
2023-04-01T11:24:29.939Z,99.90
2023-04-01T11:27:57.856Z,99.90
2023-04-01T11:31:34.397Z,99.90
2023-04-01T11:34:53.064Z,99.90
2023-04-01T11:38:19.244Z,99.90
2023-04-01T11:42:01.713Z,99.90
2023-04-01T11:45:17.570Z,99.90
2023-04-01T11:48:48.181Z,99.90
2023-04-01T11:52:15.996Z,99.90
2023-04-01T11:55:32.555Z,99.90
2023-04-01T11:59:00.106Z,99.90
2023-04-01T12:02:23.156Z,99.90
2023-04-01T12:05:48.694Z,99.90
2023-04-01T12:09:24.847Z,99.90
2023-04-01T12:13:01.643Z,99.90
2023-04-01T12:16:32.953Z,99.90
2023-04-01T12:19:45.021Z,99.90
2023-04-01T12:23:12.306Z,99.90
2023-04-01T12:26:24.189Z,99.90
2023-04-01T12:29:40.829Z,99.90
2023-04-01T12:32:54.418Z,99.90
2023-04-01T12:36:08.561Z,99.90
2023-04-01T12:39:20.039Z,99.90
2023-04-01T12:42:42.406Z,99.90
2023-04-01T12:46:07.743Z,99.90
2023-04-01T12:49:27.952Z,99.90
2023-04-01T12:52:52.493Z,99.90
2023-04-01T12:55:55.189Z,99.90
2023-04-01T12:59:22.678Z,99.90
2023-04-01T13:02:29.471Z,99.90
2023-04-01T13:06:09.590Z,99.90
2023-04-01T13:09:17.947Z,99.90
2023-04-01T13:13:00.396Z,99.90
2023-04-01T13:16:11.060Z,99.90
2023-04-01T13:19:24.752Z,99.90
2023-04-01T13:22:48.001Z,99.90
2023-04-01T13:26:14.484Z,99.90
2023-04-01T13:29:26.595Z,99.90
2023-04-01T13:32:43.503Z,99.90
2023-04-01T13:36:20.111Z,99.90
2023-04-01T13:39:30.839Z,99.90
2023-04-01T13:42:36.205Z,99.90
2023-04-01T13:46:00.600Z,99.90
2023-04-01T13:49:08.592Z,99.90
2023-04-01T13:52:20.940Z,99.90
2023-04-01T13:55:41.521Z,99.90
2023-04-01T13:59:01.080Z,99.90
2023-04-01T14:02:24.231Z,99.90
2023-04-01T14:05:47.416Z,99.90
2023-04-01T14:09:33.883Z,99.90
2023-04-01T14:12:46.784Z,99.90
2023-04-01T14:15:57.786Z,99.90
2023-04-01T14:19:26.394Z,99.90
2023-04-01T14:23:22.626Z,99.90
2023-04-01T14:26:41.412Z,99.90
2023-04-01T14:30:04.766Z,99.90
2023-04-01T14:33:32.270Z,99.90
2023-04-01T14:36:44.197Z,99.90
2023-04-01T14:40:16.931Z,99.90
2023-04-01T14:43:52.495Z,99.90
2023-04-01T14:47:41.675Z,99.90
2023-04-01T14:50:47.372Z,99.90
2023-04-01T14:54:23.751Z,99.90
2023-04-01T14:57:30.946Z,99.90
2023-04-01T15:00:51.516Z,99.90
2023-04-01T15:04:18.076Z,99.90
2023-04-01T15:07:28.443Z,99.90
2023-04-01T15:10:54.292Z,99.90
2023-04-01T15:14:20.599Z,99.90
2023-04-01T15:17:28.318Z,99.90
2023-04-01T15:20:36.755Z,99.90
2023-04-01T15:23:58.285Z,99.90
2023-04-01T15:26:59.816Z,99.90
2023-04-01T15:30:20.033Z,99.90
2023-04-01T15:33:33.146Z,99.90
2023-04-01T15:36:41.631Z,99.90
2023-04-01T15:40:02.170Z,99.90
2023-04-01T15:43:23.062Z,99.90
2023-04-01T15:46:48.607Z,99.90
2023-04-01T15:49:57.934Z,99.90
2023-04-01T15:53:26.985Z,99.90
2023-04-01T15:56:59.810Z,99.90
2023-04-01T16:00:07.371Z,99.90
2023-04-01T16:03:32.043Z,99.90
2023-04-01T16:07:05.794Z,99.90
2023-04-01T16:10:17.162Z,99.90
2023-04-01T16:13:26.026Z,99.90
2023-04-01T16:16:39.806Z,99.90
2023-04-01T16:20:02.654Z,99.90
2023-04-01T16:23:21.562Z,99.90
2023-04-01T16:26:45.264Z,99.90
2023-04-01T16:29:57.037Z,99.90
2023-04-01T16:33:07.021Z,99.90
2023-04-01T16:36:34.782Z,99.90
2023-04-01T16:39:55.025Z,99.90
2023-04-01T16:43:19.562Z,99.90
2023-04-01T16:46:32.884Z,99.90
2023-04-01T16:49:45.493Z,99.90
2023-04-01T16:53:01.774Z,99.90
2023-04-01T16:56:03.594Z,99.90
2023-04-01T16:59:16.009Z,99.90
2023-04-01T17:02:21.322Z,99.90
2023-04-01T17:05:47.965Z,99.90
2023-04-01T17:09:08.823Z,99.90
2023-04-01T17:12:10.322Z,99.90
2023-04-01T17:15:32.864Z,99.90
2023-04-01T17:18:56.443Z,99.90
2023-04-01T17:22:16.545Z,99.90
2023-04-01T17:25:42.241Z,99.90
2023-04-01T17:29:02.537Z,99.90
2023-04-01T17:32:22.423Z,99.90
2023-04-01T17:35:33.140Z,99.90
2023-04-01T17:38:41.490Z,99.90
2023-04-01T17:42:05.850Z,99.90
2023-04-01T17:45:34.165Z,99.90
2023-04-01T17:49:04.075Z,99.90
2023-04-01T17:52:23.766Z,99.90
2023-04-01T17:55:40.826Z,99.90
2023-04-01T17:59:08.409Z,99.90
2023-04-01T18:02:48.384Z,99.90
2023-04-01T18:06:17.442Z,99.90
2023-04-01T18:09:36.205Z,99.90
2023-04-01T18:13:06.925Z,99.90
2023-04-01T18:16:39.507Z,99.90
2023-04-01T18:19:59.585Z,99.90
2023-04-01T18:23:24.159Z,99.90
2023-04-01T18:26:35.558Z,99.90
2023-04-01T18:29:55.738Z,99.90
2023-04-01T18:33:05.423Z,99.90
2023-04-01T18:36:19.306Z,99.90
2023-04-01T18:39:40.489Z,99.90
2023-04-01T18:43:01.029Z,99.90
2023-04-01T18:46:10.264Z,99.90
2023-04-01T18:49:30.836Z,99.90
2023-04-01T18:52:40.068Z,99.90
2023-04-01T18:55:48.459Z,99.90
2023-04-01T18:59:00.021Z,99.90
2023-04-01T19:02:20.491Z,99.90
2023-04-01T19:05:33.469Z,99.90
2023-04-01T19:08:40.490Z,99.90
2023-04-01T19:12:08.538Z,99.90
2023-04-01T19:15:32.050Z,99.90
2023-04-01T19:18:58.446Z,99.90
2023-04-01T19:22:14.199Z,99.90
2023-04-01T19:25:21.984Z,99.90
2023-04-01T19:28:57.070Z,99.90
2023-04-01T19:32:01.706Z,99.90
2023-04-01T19:35:43.134Z,99.90
2023-04-01T19:39:01.668Z,99.90
2023-04-01T19:42:25.046Z,99.90
2023-04-01T19:45:49.685Z,99.90
2023-04-01T19:49:19.326Z,99.90
2023-04-01T19:52:38.179Z,99.90
2023-04-01T19:56:03.109Z,99.90
2023-04-01T19:59:24.998Z,99.90
2023-04-01T20:02:40.617Z,99.90
2023-04-01T20:06:25.693Z,99.90
2023-04-01T20:09:57.268Z,99.90
2023-04-01T20:13:12.818Z,99.90
2023-04-01T20:16:16.219Z,99.90
2023-04-01T20:19:34.008Z,99.90
2023-04-01T20:22:44.489Z,99.90
2023-04-01T20:26:13.823Z,99.90
2023-04-01T20:29:47.987Z,99.90
2023-04-01T20:33:13.745Z,99.90
2023-04-01T20:36:24.614Z,99.90
2023-04-01T20:39:53.541Z,99.90
2023-04-01T20:42:58.142Z,99.90
2023-04-01T20:46:05.072Z,99.90
2023-04-01T20:49:41.375Z,99.90
2023-04-01T20:53:02.476Z,99.90
2023-04-01T20:56:28.994Z,99.90
2023-04-01T20:59:51.079Z,99.90
2023-04-01T21:03:06.962Z,99.90
2023-04-01T21:06:49.116Z,99.90
2023-04-01T21:10:28.576Z,99.90
2023-04-01T21:13:38.879Z,99.90
2023-04-01T21:16:54.262Z,99.90
2023-04-01T21:20:47.621Z,99.90
2023-04-01T21:24:18.416Z,99.90
2023-04-01T21:39:25.025Z,99.90
2023-04-01T21:42:37.419Z,99.90
2023-04-01T21:45:49.788Z,99.90
2023-04-01T21:49:08.850Z,99.90
2023-04-01T21:52:49.713Z,99.90
2023-04-01T21:56:10.049Z,99.90
2023-04-01T21:59:31.966Z,99.90
2023-04-01T22:02:44.907Z,99.90
2023-04-01T22:05:57.661Z,99.90
2023-04-01T22:09:12.718Z,99.90
2023-04-01T22:12:30.307Z,99.90
2023-04-01T22:15:51.615Z,99.90
2023-04-01T22:19:04.820Z,99.90
2023-04-01T22:22:19.703Z,99.90
2023-04-01T22:25:32.559Z,99.90
2023-04-01T22:28:45.374Z,99.90
2023-04-01T22:32:08.296Z,99.90
2023-04-01T22:35:19.370Z,99.90
2023-04-01T22:38:29.895Z,99.90
2023-04-01T22:41:57.866Z,99.90
2023-04-01T22:45:22.066Z,99.90
2023-04-01T22:48:42.375Z,99.90
2023-04-01T22:51:46.827Z,99.90
2023-04-01T22:54:54.724Z,99.90
2023-04-01T22:58:05.824Z,99.90
2023-04-01T23:01:14.244Z,99.90
2023-04-01T23:04:18.864Z,99.90
2023-04-01T23:07:50.041Z,99.90
2023-04-01T23:10:58.643Z,99.90
2023-04-01T23:14:27.583Z,99.90
2023-04-01T23:17:46.626Z,99.90
2023-04-01T23:21:20.889Z,99.90
2023-04-01T23:24:34.968Z,99.90
2023-04-01T23:27:54.267Z,99.90
2023-04-01T23:30:55.900Z,99.90
2023-04-01T23:34:00.400Z,99.90
2023-04-01T23:37:12.822Z,99.90
2023-04-01T23:40:15.430Z,99.90
2023-04-01T23:43:33.045Z,99.90
2023-04-01T23:46:35.995Z,99.90
2023-04-01T23:49:42.432Z,99.90
2023-04-01T23:52:49.090Z,99.90
2023-04-01T23:55:52.415Z,99.90
2023-04-01T23:58:57.767Z,99.90
